PPRuNe Forums

Go Back   PPRuNe Forums > Ground & Other Ops Forums > Questions
Forgotten your Username/Password?

Questions If you are a professional pilot or your work involves professional aviation please use this forum for questions. Enthusiasts, please use the 'Spectators Balcony' forum.


Reply
 
Thread Tools
Old 24th Feb 2012, 21:17   #1 (permalink)
 
Join Date: Jun 2001
Location: Ether here or there!
Posts: 51
EGJJ METAR

Report from ADDS tonight for Jersey, anybody care to explain the extra bit?

HH



Aviation Digital Data Service (ADDS)

Output produced by TAFs form (2212 UTC 24 February 2012)
found at ADDS - TAFs

EGJJ 242050Z 29005KT 0100 R27/0300 FG OVC000 09/08 Q1031 NOSIG/ URN/SECURITYID
TAF EGJJ 241708Z 2418/2503 27009KT 0100 FG OVC000
hedgehopper is offline   Reply
Reply
 
 
 


Thread Tools


Posting Rules
You may not post new threads
You may not post replies
You may not post attachments
You may not edit your posts

BB code is On
Smilies are On
[IMG] code is On
HTML code is Off
Trackbacks are Off
Pingbacks are Off
Refbacks are Off



All times are GMT. The time now is 18:55.


vBulletin® v3.8.7, Copyright ©2000-2014, vBulletin Solutions, Inc.
SEO by vBSEO 3.6.1
1996-2012 The Professional Pilots Rumour Network